createdAt,value
2022-08-10T00:01:52.585Z,100292.47
2022-08-10T00:04:22.266Z,100289.28
2022-08-10T00:06:52.372Z,100291.16
2022-08-10T00:09:21.668Z,100289.44
2022-08-10T00:11:50.165Z,100292.91
2022-08-10T00:14:19.109Z,100301.53
2022-08-10T00:16:47.762Z,100297.16
2022-08-10T00:19:18.341Z,100292.81
2022-08-10T00:21:47.613Z,100297.88
2022-08-10T00:24:16.073Z,100299.59
2022-08-10T00:28:01.638Z,100299.72
2022-08-10T00:29:33.442Z,100293.00
2022-08-10T00:32:01.693Z,100295.63
2022-08-10T00:34:33.000Z,100293.94
2022-08-10T00:37:01.406Z,100293.25
2022-08-10T00:39:30.629Z,100290.00
2022-08-10T00:42:08.141Z,100283.09
2022-08-10T00:44:38.023Z,100291.84
2022-08-10T00:47:06.630Z,100291.22
2022-08-10T00:49:36.630Z,100295.72
2022-08-10T00:52:05.895Z,100301.69
2022-08-10T00:54:35.946Z,100300.78
2022-08-10T00:57:16.772Z,100300.66
2022-08-10T00:59:57.992Z,100301.41
2022-08-10T01:02:29.802Z,100302.56
2022-08-10T01:05:02.476Z,100310.63
2022-08-10T01:07:49.518Z,100308.03
2022-08-10T01:10:23.610Z,100308.94
2022-08-10T01:12:55.935Z,100306.47
2022-08-10T01:15:28.393Z,100303.97
2022-08-10T01:18:01.911Z,100304.97
2022-08-10T01:20:36.133Z,100305.25
2022-08-10T01:23:22.402Z,100302.09
2022-08-10T01:26:11.442Z,100297.09
2022-08-10T01:28:48.676Z,100310.13
2022-08-10T01:31:21.721Z,100308.53
2022-08-10T01:33:58.214Z,100300.78
2022-08-10T01:36:31.997Z,100305.19
2022-08-10T01:39:03.484Z,100297.47
2022-08-10T01:41:43.969Z,100294.06
2022-08-10T01:44:19.874Z,100306.09
2022-08-10T01:46:56.975Z,100288.13
2022-08-10T01:49:26.243Z,100295.97
2022-08-10T01:51:56.449Z,100295.13
2022-08-10T01:54:30.585Z,100289.94
2022-08-10T01:56:59.984Z,100296.03
2022-08-10T01:59:31.432Z,100293.50
2022-08-10T02:02:03.378Z,100292.75
2022-08-10T02:04:33.923Z,100292.69
2022-08-10T02:07:03.195Z,100297.91
2022-08-10T02:09:33.652Z,100298.72
2022-08-10T02:12:08.279Z,100291.00
2022-08-10T02:14:40.546Z,100287.66
2022-08-10T02:18:00.636Z,100288.44
2022-08-10T02:20:04.194Z,100292.50
2022-08-10T02:22:37.077Z,100286.41
2022-08-10T02:25:08.773Z,100288.72
2022-08-10T02:27:38.254Z,100285.28
2022-08-10T02:30:07.706Z,100283.72
2022-08-10T02:32:38.976Z,100286.34
2022-08-10T02:35:13.928Z,100292.28
2022-08-10T02:37:51.825Z,100283.66
2022-08-10T02:45:15.945Z,100297.66
2022-08-10T02:45:18.090Z,100292.56
2022-08-10T02:46:08.374Z,100295.16
2022-08-10T02:48:41.326Z,100299.47
2022-08-10T02:51:12.895Z,100290.91
2022-08-10T02:53:54.341Z,100293.53
2022-08-10T02:56:27.777Z,100297.75
2022-08-10T02:59:00.032Z,100290.81
2022-08-10T03:01:30.602Z,100299.47
2022-08-10T03:04:02.351Z,100292.81
2022-08-10T03:06:35.583Z,100298.91
2022-08-10T03:09:05.213Z,100293.06
2022-08-10T03:12:36.537Z,100298.16
2022-08-10T03:14:25.962Z,100290.50
2022-08-10T03:16:55.294Z,100291.41
2022-08-10T03:20:35.111Z,100298.34
2022-08-10T03:22:16.112Z,100296.91
2022-08-10T03:24:45.425Z,100300.66
2022-08-10T03:27:14.676Z,100300.75
2022-08-10T03:30:23.465Z,100298.25
2022-08-10T03:32:32.475Z,100301.78
2022-08-10T03:35:02.404Z,100307.84
2022-08-10T03:37:31.141Z,100316.47
2022-08-10T03:39:59.529Z,100312.22
2022-08-10T03:42:28.725Z,100318.19
2022-08-10T03:44:57.594Z,100319.91
2022-08-10T03:47:26.497Z,100322.41
2022-08-10T03:49:55.304Z,100323.31
2022-08-10T03:52:25.455Z,100321.53
2022-08-10T03:54:54.105Z,100326.66
2022-08-10T03:57:23.483Z,100312.78
2022-08-10T03:59:51.938Z,100321.38
2022-08-10T04:02:45.980Z,100324.81
2022-08-10T04:05:10.373Z,100327.41
2022-08-10T04:07:40.747Z,100338.53
2022-08-10T04:10:13.145Z,100333.19
2022-08-10T04:12:41.978Z,100329.56
2022-08-10T04:15:10.648Z,100329.44
2022-08-10T04:18:03.573Z,100336.19
2022-08-10T04:20:34.248Z,100334.28
2022-08-10T04:23:07.877Z,100327.31
2022-08-10T04:25:37.489Z,100323.72
2022-08-10T04:28:06.076Z,100327.88
2022-08-10T04:30:36.583Z,100332.84
2022-08-10T04:33:07.496Z,100336.06
2022-08-10T04:35:36.605Z,100333.31
2022-08-10T04:38:07.498Z,100335.78
2022-08-10T04:40:35.775Z,100334.69
2022-08-10T04:43:11.786Z,100334.50
2022-08-10T04:45:49.519Z,100334.41
2022-08-10T04:48:41.575Z,100330.13
2022-08-10T04:51:10.840Z,100327.38
2022-08-10T04:54:05.316Z,100329.00
2022-08-10T04:56:32.147Z,100333.97
2022-08-10T04:59:01.210Z,100332.91
2022-08-10T05:01:37.787Z,100327.50
2022-08-10T05:04:35.325Z,100332.25
2022-08-10T05:07:08.418Z,100332.13
2022-08-10T05:10:02.910Z,100331.16
2022-08-10T05:12:26.838Z,100337.06
2022-08-10T05:14:55.247Z,100335.09
2022-08-10T05:17:24.108Z,100337.28
2022-08-10T05:20:01.873Z,100333.53
2022-08-10T05:22:35.490Z,100335.78
2022-08-10T05:25:06.828Z,100326.00
2022-08-10T05:27:35.588Z,100329.19
2022-08-10T05:30:04.250Z,100335.78
2022-08-10T05:32:34.416Z,100327.69
2022-08-10T05:35:21.545Z,100333.41
2022-08-10T05:38:09.764Z,100327.81
2022-08-10T05:40:47.244Z,100324.91
2022-08-10T05:43:20.200Z,100328.81
2022-08-10T05:46:16.948Z,100323.13
2022-08-10T05:48:54.255Z,100326.94
2022-08-10T05:51:27.316Z,100325.84
2022-08-10T05:54:02.029Z,100332.53
2022-08-10T05:56:53.950Z,100331.50
2022-08-10T06:00:11.221Z,100331.16
2022-08-10T06:02:31.417Z,100321.25
2022-08-10T06:05:05.709Z,100328.03
2022-08-10T06:07:36.725Z,100324.44
2022-08-10T06:10:10.041Z,100322.31
2022-08-10T06:12:54.928Z,100333.69
2022-08-10T06:15:51.943Z,100321.91
2022-08-10T06:18:14.383Z,100322.50
2022-08-10T06:20:43.018Z,100330.75
2022-08-10T06:23:11.699Z,100334.16
2022-08-10T06:26:08.374Z,100334.16
2022-08-10T06:28:32.837Z,100328.53
2022-08-10T06:31:02.335Z,100331.53
2022-08-10T06:33:32.308Z,100337.06
2022-08-10T06:36:02.107Z,100333.97
2022-08-10T06:38:33.430Z,100331.72
2022-08-10T06:41:04.357Z,100327.72
2022-08-10T06:43:35.341Z,100330.38
2022-08-10T06:46:08.797Z,100330.47
2022-08-10T06:48:40.727Z,100332.78
2022-08-10T06:51:10.177Z,100330.72
2022-08-10T06:53:54.152Z,100335.50
2022-08-10T06:56:37.869Z,100327.53
2022-08-10T06:59:21.830Z,100326.72
2022-08-10T07:01:54.313Z,100329.72
2022-08-10T07:04:32.839Z,100324.59
2022-08-10T07:07:06.914Z,100323.38
2022-08-10T07:09:37.659Z,100319.31
2022-08-10T07:12:08.199Z,100315.25
2022-08-10T07:14:43.188Z,100318.34
2022-08-10T07:17:16.168Z,100318.88
2022-08-10T07:19:50.108Z,100314.16
2022-08-10T07:23:01.358Z,100320.22
2022-08-10T07:25:12.179Z,100311.25
2022-08-10T07:28:00.734Z,100315.41
2022-08-10T07:30:32.727Z,100318.69
2022-08-10T07:33:02.261Z,100320.06
2022-08-10T07:35:41.697Z,100309.09
2022-08-10T07:38:14.902Z,100317.97
2022-08-10T07:40:43.711Z,100317.00
2022-08-10T07:43:12.657Z,100315.31
2022-08-10T07:45:42.568Z,100314.91
2022-08-10T07:48:13.490Z,100318.50
2022-08-10T07:50:42.718Z,100312.13
2022-08-10T07:53:13.711Z,100324.41
2022-08-10T07:56:05.006Z,100317.25
2022-08-10T07:58:35.582Z,100316.50
2022-08-10T08:01:05.467Z,100313.28
2022-08-10T08:03:34.727Z,100308.06
2022-08-10T08:06:05.543Z,100309.09
2022-08-10T08:08:42.107Z,100310.38
2022-08-10T08:11:25.945Z,100312.78
2022-08-10T08:13:57.989Z,100318.28
2022-08-10T08:16:27.955Z,100306.44
2022-08-10T08:19:26.579Z,100313.88
2022-08-10T08:24:08.725Z,100305.09
2022-08-10T08:24:37.276Z,100302.75
2022-08-10T08:27:08.099Z,100305.47
2022-08-10T08:29:38.656Z,100303.28
2022-08-10T08:32:09.826Z,100305.47
2022-08-10T08:34:39.549Z,100302.59
2022-08-10T08:37:10.408Z,100305.38
2022-08-10T08:39:39.469Z,100309.16
2022-08-10T08:42:28.358Z,100301.94
2022-08-10T08:45:04.910Z,100303.28
2022-08-10T08:48:04.237Z,100299.53
2022-08-10T08:50:41.538Z,100295.47
2022-08-10T08:53:22.355Z,100289.06
2022-08-10T08:56:06.005Z,100295.47
2022-08-10T08:58:47.879Z,100299.28
2022-08-10T09:01:38.320Z,100286.19
2022-08-10T09:04:20.044Z,100297.84
2022-08-10T09:06:56.393Z,100301.88
2022-08-10T09:09:37.036Z,100286.66
2022-08-10T09:12:14.887Z,100289.66
2022-08-10T09:14:50.526Z,100291.47
2022-08-10T09:17:21.941Z,100296.38
2022-08-10T09:19:56.076Z,100291.59
2022-08-10T09:22:31.319Z,100283.44
2022-08-10T09:25:02.391Z,100284.31
2022-08-10T09:27:35.405Z,100292.91
2022-08-10T09:30:06.420Z,100280.94
2022-08-10T09:36:17.488Z,100278.03
2022-08-10T09:36:25.390Z,100277.00
2022-08-10T09:38:33.426Z,100277.19
2022-08-10T09:41:13.582Z,100272.69
2022-08-10T09:43:51.541Z,100273.94
2022-08-10T09:46:29.758Z,100270.13
2022-08-10T09:49:03.537Z,100266.53
2022-08-10T09:51:46.405Z,100269.38
2022-08-10T09:54:23.271Z,100264.38
2022-08-10T09:57:17.846Z,100256.22
2022-08-10T10:00:00.397Z,100260.44
2022-08-10T10:02:37.716Z,100256.22
2022-08-10T10:05:13.898Z,100249.94
2022-08-10T10:07:47.617Z,100252.47
2022-08-10T10:10:21.157Z,100246.06
2022-08-10T10:12:54.593Z,100242.91
2022-08-10T10:15:27.857Z,100254.91
2022-08-10T10:18:13.289Z,100252.88
2022-08-10T10:20:43.940Z,100245.53
2022-08-10T10:23:19.657Z,100235.00
2022-08-10T10:25:52.630Z,100245.31
2022-08-10T10:29:06.904Z,100246.00
2022-08-10T10:31:26.032Z,100236.28
2022-08-10T10:34:02.279Z,100236.22
2022-08-10T10:36:31.099Z,100225.84
2022-08-10T10:39:01.639Z,100225.91
2022-08-10T10:41:56.279Z,100216.38
2022-08-10T10:44:40.247Z,100219.31
2022-08-10T10:47:15.902Z,100210.09
2022-08-10T10:49:51.137Z,100210.59
2022-08-10T10:52:29.130Z,100211.13
2022-08-10T10:55:04.827Z,100211.03
2022-08-10T10:57:58.395Z,100218.81
2022-08-10T11:00:31.147Z,100210.53
2022-08-10T11:03:15.228Z,100212.53
2022-08-10T11:05:49.322Z,100216.72
2022-08-10T11:08:20.295Z,100207.69
2022-08-10T11:11:02.647Z,100211.69
2022-08-10T11:14:26.345Z,100214.66
2022-08-10T11:16:29.509Z,100195.38
2022-08-10T11:19:00.833Z,100204.06
2022-08-10T11:21:36.737Z,100200.03
2022-08-10T11:24:48.879Z,100204.06
2022-08-10T11:27:03.911Z,100189.13
2022-08-10T11:29:35.062Z,100194.16
2022-08-10T11:32:08.460Z,100191.41
2022-08-10T11:35:11.487Z,100197.31
2022-08-10T11:38:29.737Z,100191.63
2022-08-10T11:40:40.632Z,100187.59
2022-08-10T11:43:12.339Z,100184.38
2022-08-10T11:45:52.077Z,100195.84
2022-08-10T11:48:54.129Z,100186.56
2022-08-10T11:51:20.839Z,100179.38
2022-08-10T11:53:51.660Z,100180.59
2022-08-10T11:56:26.098Z,100189.69
2022-08-10T11:59:16.637Z,100197.25
2022-08-10T12:01:47.207Z,100186.03
2022-08-10T12:04:16.321Z,100180.19
2022-08-10T12:06:55.651Z,100187.06
2022-08-10T12:10:05.510Z,100180.28
2022-08-10T12:12:16.787Z,100174.66
2022-08-10T12:14:49.889Z,100175.59
2022-08-10T12:17:21.629Z,100171.09
2022-08-10T12:19:59.921Z,100161.91
2022-08-10T12:22:35.749Z,100155.09
2022-08-10T12:25:05.769Z,100160.63
2022-08-10T12:27:38.669Z,100156.31
2022-08-10T12:30:09.491Z,100156.28
2022-08-10T12:32:42.952Z,100157.34
2022-08-10T12:35:21.798Z,100147.38
2022-08-10T12:37:58.258Z,100158.13
2022-08-10T12:40:36.881Z,100152.81
2022-08-10T12:44:04.777Z,100153.88
2022-08-10T12:46:06.704Z,100156.50
2022-08-10T12:48:38.401Z,100155.16
2022-08-10T12:51:11.690Z,100152.22
2022-08-10T12:53:47.731Z,100147.03
2022-08-10T12:56:24.681Z,100159.56
2022-08-10T12:58:58.910Z,100150.94
2022-08-10T13:02:07.454Z,100140.91
2022-08-10T13:04:28.510Z,100136.84
2022-08-10T13:06:57.016Z,100137.09
2022-08-10T13:09:26.438Z,100131.06
2022-08-10T13:12:35.450Z,100129.72
2022-08-10T13:14:49.637Z,100127.59
2022-08-10T13:17:24.835Z,100135.13
2022-08-10T13:20:14.349Z,100128.03
2022-08-10T13:22:43.216Z,100124.09
2022-08-10T13:25:12.476Z,100121.34
2022-08-10T13:28:01.111Z,100118.47
2022-08-10T13:30:37.267Z,100121.09
2022-08-10T13:33:10.758Z,100112.88
2022-08-10T13:35:39.718Z,100109.88
2022-08-10T13:38:10.222Z,100110.59
2022-08-10T13:40:40.100Z,100100.19
2022-08-10T13:43:09.349Z,100099.56
2022-08-10T13:45:43.040Z,100103.31
2022-08-10T13:48:18.512Z,100101.69
2022-08-10T13:50:47.988Z,100105.31
2022-08-10T13:53:18.470Z,100104.75
2022-08-10T13:55:54.842Z,100098.94
2022-08-10T13:58:26.241Z,100100.28
2022-08-10T14:00:55.782Z,100092.59
2022-08-10T14:03:27.292Z,100078.47
2022-08-10T14:05:57.005Z,100085.91
2022-08-10T14:08:26.919Z,100083.03
2022-08-10T14:11:09.554Z,100080.44
2022-08-10T14:13:42.266Z,100083.25
2022-08-10T14:16:12.822Z,100081.75
2022-08-10T14:18:45.169Z,100087.50
2022-08-10T14:21:14.533Z,100075.38
2022-08-10T14:23:48.634Z,100069.38
2022-08-10T14:26:23.392Z,100076.31
2022-08-10T14:28:54.594Z,100075.56
2022-08-10T14:31:27.413Z,100064.38
2022-08-10T14:33:59.104Z,100064.38
2022-08-10T14:36:32.205Z,100069.66
2022-08-10T14:39:02.516Z,100078.06
2022-08-10T14:42:01.083Z,100069.22
2022-08-10T14:44:22.272Z,100072.41
2022-08-10T14:46:55.677Z,100074.91
2022-08-10T14:49:27.308Z,100073.66
2022-08-10T14:52:01.019Z,100063.16
2022-08-10T14:54:30.201Z,100066.22
2022-08-10T14:57:11.167Z,100064.97
2022-08-10T15:00:22.494Z,100062.56
2022-08-10T15:02:38.704Z,100056.88
2022-08-10T15:05:12.128Z,100063.41
2022-08-10T15:07:41.990Z,100061.72
2022-08-10T15:10:11.999Z,100066.34
2022-08-10T15:12:41.493Z,100052.28
2022-08-10T15:15:17.861Z,100064.47
2022-08-10T15:17:48.569Z,100057.53
2022-08-10T15:20:20.406Z,100062.56
2022-08-10T15:22:51.285Z,100059.00
2022-08-10T15:25:24.268Z,100065.31
2022-08-10T15:27:57.094Z,100055.22
2022-08-10T15:30:39.707Z,100048.28
2022-08-10T15:33:21.342Z,100052.69
2022-08-10T15:36:20.210Z,100050.59
2022-08-10T15:38:50.309Z,100059.78
2022-08-10T15:41:58.800Z,100057.63
2022-08-10T15:44:24.993Z,100053.53
2022-08-10T15:47:02.777Z,100057.50
2022-08-10T15:49:33.503Z,100051.94
2022-08-10T15:52:04.363Z,100052.38
2022-08-10T15:54:34.666Z,100053.53
2022-08-10T15:57:05.025Z,100064.22
2022-08-10T15:59:35.565Z,100055.16
2022-08-10T16:02:15.782Z,100053.16
2022-08-10T16:04:50.038Z,100046.75
2022-08-10T16:07:20.603Z,100054.09
2022-08-10T16:10:23.092Z,100048.66
2022-08-10T16:12:43.700Z,100053.06
2022-08-10T16:15:29.568Z,100052.59
2022-08-10T16:18:02.752Z,100055.41
2022-08-10T16:20:32.752Z,100049.44
2022-08-10T16:23:02.989Z,100055.81
2022-08-10T16:25:48.285Z,100049.41
2022-08-10T16:28:23.749Z,100054.94
2022-08-10T16:30:54.702Z,100052.53
2022-08-10T16:33:28.092Z,100046.00
2022-08-10T16:36:17.552Z,100059.22
2022-08-10T16:38:47.970Z,100059.22
2022-08-10T16:42:04.219Z,100053.41
2022-08-10T16:44:06.971Z,100068.81
2022-08-10T16:46:35.713Z,100069.00
2022-08-10T16:49:06.869Z,100068.16
2022-08-10T16:51:36.239Z,100067.50
2022-08-10T16:54:05.048Z,100068.72
2022-08-10T16:56:47.689Z,100066.59
2022-08-10T16:59:24.405Z,100080.38
2022-08-10T17:01:54.457Z,100076.34
2022-08-10T17:04:25.048Z,100078.31
2022-08-10T17:06:56.400Z,100078.50
2022-08-10T17:09:27.779Z,100074.41
2022-08-10T17:11:58.314Z,100078.13
2022-08-10T17:14:28.800Z,100074.03
2022-08-10T17:17:00.571Z,100080.28
2022-08-10T17:19:33.104Z,100082.28
2022-08-10T17:22:03.840Z,100079.09
2022-08-10T17:24:34.363Z,100082.25
2022-08-10T17:28:04.481Z,100088.25
2022-08-10T17:30:04.622Z,100088.59
2022-08-10T17:32:44.387Z,100081.84
2022-08-10T17:35:22.997Z,100094.38
2022-08-10T17:37:56.771Z,100094.56
2022-08-10T17:40:26.650Z,100088.84
2022-08-10T17:42:55.978Z,100092.78
2022-08-10T17:45:47.467Z,100092.19
2022-08-10T17:48:15.759Z,100097.03
2022-08-10T17:50:49.832Z,100098.25
2022-08-10T17:53:20.149Z,100094.28
2022-08-10T17:55:50.841Z,100100.47
2022-08-10T17:58:21.241Z,100102.50
2022-08-10T18:00:51.302Z,100107.22
2022-08-10T18:03:25.105Z,100107.28
2022-08-10T18:05:56.710Z,100113.00
2022-08-10T18:08:26.720Z,100109.84
2022-08-10T18:10:58.081Z,100116.19
2022-08-10T18:13:28.891Z,100121.75
2022-08-10T18:16:24.550Z,100127.34
2022-08-10T18:18:57.553Z,100120.63
2022-08-10T18:21:32.408Z,100124.25
2022-08-10T18:24:02.188Z,100124.22
2022-08-10T18:26:35.718Z,100136.66
2022-08-10T18:29:07.649Z,100131.47
2022-08-10T18:31:38.292Z,100138.78
2022-08-10T18:34:13.000Z,100129.59
2022-08-10T18:36:44.640Z,100134.22
2022-08-10T18:39:15.990Z,100142.47
2022-08-10T18:42:04.918Z,100138.66
2022-08-10T18:44:36.739Z,100138.84
2022-08-10T18:47:07.881Z,100141.91
2022-08-10T18:49:43.108Z,100141.41
2022-08-10T18:52:16.479Z,100149.47
2022-08-10T18:54:46.623Z,100147.94
2022-08-10T18:57:22.479Z,100147.78
2022-08-10T19:00:08.757Z,100148.69
2022-08-10T19:02:48.959Z,100149.09
2022-08-10T19:05:30.483Z,100152.16
2022-08-10T19:08:11.167Z,100145.19
2022-08-10T19:10:43.978Z,100146.66
2022-08-10T19:13:20.131Z,100158.69
2022-08-10T19:15:53.679Z,100145.03
2022-08-10T19:18:30.172Z,100146.03
2022-08-10T19:21:00.978Z,100152.31
2022-08-10T19:23:39.681Z,100155.38
2022-08-10T19:26:36.500Z,100156.38
2022-08-10T19:29:16.357Z,100153.00
2022-08-10T19:32:03.144Z,100151.47
2022-08-10T19:34:46.372Z,100156.97
2022-08-10T19:37:20.571Z,100152.03
2022-08-10T19:39:58.311Z,100159.06
2022-08-10T19:42:31.751Z,100148.56
2022-08-10T19:45:06.240Z,100154.00
2022-08-10T19:47:39.992Z,100160.44
2022-08-10T19:50:11.022Z,100163.41
2022-08-10T19:52:44.251Z,100165.59
2022-08-10T19:55:19.313Z,100169.28
2022-08-10T19:57:53.586Z,100168.47
2022-08-10T20:00:26.954Z,100166.28
2022-08-10T20:03:07.987Z,100175.03
2022-08-10T20:05:43.519Z,100166.47
2022-08-10T20:08:37.003Z,100174.53
2022-08-10T20:11:44.346Z,100175.88
2022-08-10T20:14:08.126Z,100169.50
2022-08-10T20:16:50.403Z,100179.94
2022-08-10T20:19:53.616Z,100171.34
2022-08-10T20:22:18.152Z,100174.84
2022-08-10T20:25:02.840Z,100184.50
2022-08-10T20:27:57.855Z,100181.09
2022-08-10T20:30:28.815Z,100177.84
2022-08-10T20:32:58.484Z,100180.31
2022-08-10T20:35:27.721Z,100185.81
2022-08-10T20:38:04.951Z,100189.47
2022-08-10T20:40:47.162Z,100189.97
2022-08-10T20:43:21.825Z,100196.84
2022-08-10T20:46:09.423Z,100191.28
2022-08-10T20:48:42.693Z,100201.47
2022-08-10T20:51:16.162Z,100194.47
2022-08-10T20:53:46.595Z,100199.66
2022-08-10T20:56:18.643Z,100197.63
2022-08-10T20:58:58.145Z,100198.97
2022-08-10T21:02:06.544Z,100202.94
2022-08-10T21:04:32.414Z,100197.31
2022-08-10T21:07:44.117Z,100202.69
2022-08-10T21:10:18.256Z,100196.09
2022-08-10T21:13:00.034Z,100191.50
2022-08-10T21:15:41.684Z,100195.81
2022-08-10T21:18:23.006Z,100199.06
2022-08-10T21:20:59.591Z,100191.50
2022-08-10T21:23:31.048Z,100195.81
2022-08-10T21:26:08.042Z,100196.28
2022-08-10T21:28:56.777Z,100200.22
2022-08-10T21:31:41.877Z,100199.19
2022-08-10T21:34:19.334Z,100206.19
2022-08-10T21:37:07.925Z,100204.75
2022-08-10T21:39:49.161Z,100206.31
2022-08-10T21:42:33.486Z,100203.03
2022-08-10T21:45:17.765Z,100198.91
2022-08-10T21:48:07.379Z,100200.75
2022-08-10T21:51:01.956Z,100200.03
2022-08-10T21:53:47.654Z,100196.81
2022-08-10T21:56:30.495Z,100202.97
2022-08-10T21:59:13.026Z,100207.56
2022-08-10T22:01:55.960Z,100206.03
2022-08-10T22:04:35.210Z,100208.59
2022-08-10T22:07:15.902Z,100204.19
2022-08-10T22:09:56.978Z,100206.19
2022-08-10T22:12:38.181Z,100200.16
2022-08-10T22:16:05.377Z,100192.66
2022-08-10T22:18:31.503Z,100198.75
2022-08-10T22:21:13.377Z,100199.03
2022-08-10T22:24:02.295Z,100209.31
2022-08-10T22:27:03.206Z,100202.53
2022-08-10T22:29:44.020Z,100198.75
2022-08-10T22:32:30.381Z,100193.03
2022-08-10T22:35:15.129Z,100188.84
2022-08-10T22:38:08.168Z,100183.94
2022-08-10T22:40:48.287Z,100188.44
2022-08-10T22:43:36.510Z,100181.66
2022-08-10T22:46:18.047Z,100182.03
2022-08-10T22:48:56.228Z,100177.06
2022-08-10T22:51:24.929Z,100181.47
2022-08-10T22:54:04.207Z,100175.06
2022-08-10T22:56:47.700Z,100189.06
2022-08-10T22:59:27.839Z,100181.91
2022-08-10T23:02:08.599Z,100183.88
2022-08-10T23:04:45.000Z,100187.03
2022-08-10T23:07:21.869Z,100179.34
2022-08-10T23:09:57.166Z,100176.31
2022-08-10T23:12:31.032Z,100180.25
2022-08-10T23:15:10.835Z,100182.16
2022-08-10T23:18:02.112Z,100173.59
2022-08-10T23:20:32.178Z,100171.81
2022-08-10T23:23:09.039Z,100179.78
2022-08-10T23:25:57.372Z,100180.81
2022-08-10T23:28:57.352Z,100180.00
2022-08-10T23:32:00.613Z,100184.44
2022-08-10T23:34:07.978Z,100173.34
2022-08-10T23:36:39.190Z,100174.22
2022-08-10T23:39:25.825Z,100175.88
2022-08-10T23:42:04.857Z,100177.59
2022-08-10T23:44:43.132Z,100174.91
2022-08-10T23:47:13.342Z,100167.31
2022-08-10T23:49:43.293Z,100174.44
2022-08-10T23:52:13.321Z,100168.59
2022-08-10T23:54:46.070Z,100176.53
2022-08-10T23:57:18.529Z,100171.44
2022-08-10T23:59:57.860Z,100168.22
